createdAt,value
2017-06-05T08:26:43.918Z,1016.571
2017-06-05T08:29:27.321Z,1016.562
2017-06-05T08:39:24.008Z,1016.531
2017-06-05T08:42:07.734Z,1016.553
2017-06-05T08:45:01.728Z,1016.530
2017-06-05T08:47:56.357Z,1016.502
2017-06-05T08:51:02.504Z,1016.485
2017-06-05T08:53:52.539Z,1016.494
2017-06-05T08:56:58.739Z,1016.520
2017-06-05T08:59:48.686Z,1016.548
2017-06-05T09:02:43.692Z,1016.547
2017-06-05T09:05:38.641Z,1016.529
2017-06-05T09:08:33.705Z,1016.516
2017-06-05T09:11:28.854Z,1016.493
2017-06-05T09:14:24.038Z,1016.472
2017-06-05T09:17:19.192Z,1016.365
2017-06-05T09:20:14.379Z,1016.286
2017-06-05T09:23:09.442Z,1016.266
2017-06-05T09:26:04.662Z,1016.201
2017-06-05T09:28:59.910Z,1016.234
2017-06-05T09:31:55.011Z,1016.221
2017-06-05T09:34:49.875Z,1016.176
2017-06-05T09:37:44.801Z,1016.181
2017-06-05T09:40:39.671Z,1016.161
2017-06-05T09:43:34.797Z,1016.191
2017-06-05T09:46:29.861Z,1016.219
2017-06-05T09:49:25.091Z,1016.208
2017-06-05T09:52:20.223Z,1016.223
2017-06-05T09:55:15.334Z,1016.171
2017-06-05T09:58:10.414Z,1016.107
2017-06-05T10:01:05.595Z,1016.081
2017-06-05T10:04:00.782Z,1016.080
2017-06-05T10:06:55.716Z,1016.057
2017-06-05T10:09:50.755Z,1015.994
2017-06-05T10:12:45.919Z,1015.964
2017-06-05T10:15:40.875Z,1015.904
2017-06-05T10:18:35.699Z,1015.856
2017-06-05T10:21:30.538Z,1015.829
2017-06-05T10:24:25.255Z,1015.807
2017-06-05T10:27:20.147Z,1015.831
2017-06-05T10:30:14.948Z,1015.798
2017-06-05T10:33:09.679Z,1015.810
2017-06-05T10:38:58.987Z,1015.747
2017-06-05T10:41:53.630Z,1015.706
2017-06-05T10:44:48.201Z,1015.690
2017-06-05T10:47:42.741Z,1015.649
2017-06-05T10:50:37.343Z,1015.632
2017-06-05T10:53:32.149Z,1015.647
2017-06-05T10:56:26.831Z,1015.589
2017-06-05T11:02:16.257Z,1015.546
2017-06-05T11:05:10.870Z,1015.481
2017-06-05T11:08:05.464Z,1015.493
2017-06-05T11:11:00.040Z,1015.440
2017-06-05T11:13:54.559Z,1015.447
2017-06-05T11:16:49.215Z,1015.494
2017-06-05T11:25:32.930Z,1015.357
2017-06-05T11:28:27.620Z,1015.349
2017-06-05T11:31:22.344Z,1015.395
2017-06-05T11:34:17.158Z,1015.429
2017-06-05T11:37:11.872Z,1015.454
2017-06-05T11:40:06.516Z,1015.418
2017-06-05T11:43:01.267Z,1015.393
2017-06-05T11:45:55.821Z,1015.390
2017-06-05T11:48:50.438Z,1015.381
2017-06-05T11:51:45.006Z,1015.416
2017-06-05T11:54:39.650Z,1015.365
2017-06-05T11:57:34.419Z,1015.332
2017-06-05T12:00:28.873Z,1015.287
2017-06-05T12:06:18.021Z,1015.160
2017-06-05T12:09:12.689Z,1015.073
2017-06-05T12:20:51.241Z,1014.985
2017-06-05T12:23:45.976Z,1014.972
2017-06-05T12:26:40.479Z,1014.936
2017-06-05T12:29:35.100Z,1014.922
2017-06-05T12:32:29.747Z,1014.892
2017-06-05T12:38:18.869Z,1014.824
2017-06-05T12:41:13.370Z,1014.762
2017-06-05T12:44:08.084Z,1014.756
2017-06-05T12:47:02.583Z,1014.749
2017-06-05T12:49:57.128Z,1014.709
2017-06-05T12:55:46.139Z,1014.681
2017-06-05T12:58:40.596Z,1014.661
2017-06-05T13:02:09.182Z,1014.638
2017-06-05T13:07:49.738Z,1014.561
2017-06-05T13:10:44.279Z,1014.561
2017-06-05T13:13:38.835Z,1014.511
2017-06-05T13:16:33.344Z,1014.539
2017-06-05T13:19:27.922Z,1014.509
2017-06-05T13:22:22.284Z,1014.470
2017-06-05T13:25:16.808Z,1014.459
2017-06-05T13:28:11.399Z,1014.387
2017-06-05T13:31:05.862Z,1014.314
2017-06-05T13:36:54.890Z,1014.303
2017-06-05T13:42:44.014Z,1014.240
2017-06-05T13:45:38.509Z,1014.194
2017-06-05T13:48:33.018Z,1014.163
2017-06-05T13:51:27.387Z,1014.171
2017-06-05T13:54:21.905Z,1014.122
2017-06-05T13:57:16.303Z,1014.056
2017-06-05T14:00:10.810Z,1014.061
2017-06-05T14:03:05.314Z,1014.046
2017-06-05T14:05:59.824Z,1013.992
2017-06-05T14:08:54.241Z,1013.991
2017-06-05T14:11:48.797Z,1013.968
2017-06-05T14:14:43.234Z,1013.923
2017-06-05T14:17:37.952Z,1013.912
2017-06-05T14:20:32.611Z,1013.881
2017-06-05T14:23:27.123Z,1013.845
2017-06-05T14:26:21.650Z,1013.812
2017-06-05T14:29:16.155Z,1013.791
2017-06-05T14:32:10.602Z,1013.802
2017-06-05T14:35:05.140Z,1013.790
2017-06-05T14:37:59.682Z,1013.745
2017-06-05T14:43:48.603Z,1013.703
2017-06-05T14:46:43.179Z,1013.720
2017-06-05T14:49:37.707Z,1013.708
2017-06-05T14:53:28.681Z,1013.681
2017-06-05T14:56:13.659Z,1013.645
2017-06-05T15:07:34.659Z,1013.600
2017-06-05T15:10:28.933Z,1013.554
2017-06-05T15:13:57.238Z,1013.524
2017-06-05T15:16:54.714Z,1013.486
2017-06-05T15:19:44.144Z,1013.427
2017-06-05T15:22:49.912Z,1013.433
2017-06-05T15:27:09.716Z,1013.428
2017-06-05T15:32:47.802Z,1013.381
2017-06-05T15:37:12.477Z,1013.323
2017-06-05T15:40:41.893Z,1013.299
2017-06-05T15:43:27.108Z,1013.279
2017-06-05T15:46:43.817Z,1013.274
2017-06-05T15:49:30.999Z,1013.269
2017-06-05T16:00:30.486Z,1013.346
2017-06-05T16:03:15.590Z,1013.387
